sensor_id;sensor_type;location;lat;lon;timestamp;temperature;humidity
42683;DHT22;28293;50.930;3.464;2023-06-14T00:00:43;20.80;59.80
42683;DHT22;28293;50.930;3.464;2023-06-14T00:03:10;20.80;59.80
42683;DHT22;28293;50.930;3.464;2023-06-14T00:05:38;20.70;59.90
42683;DHT22;28293;50.930;3.464;2023-06-14T00:08:09;20.70;60.50
42683;DHT22;28293;50.930;3.464;2023-06-14T00:10:38;20.60;60.80
42683;DHT22;28293;50.930;3.464;2023-06-14T00:13:06;20.60;61.20
42683;DHT22;28293;50.930;3.464;2023-06-14T00:15:33;20.60;61.50
42683;DHT22;28293;50.930;3.464;2023-06-14T00:17:59;20.50;61.70
42683;DHT22;28293;50.930;3.464;2023-06-14T00:20:27;20.60;61.70
42683;DHT22;28293;50.930;3.464;2023-06-14T00:22:53;20.60;61.50
42683;DHT22;28293;50.930;3.464;2023-06-14T00:25:22;20.60;61.50
42683;DHT22;28293;50.930;3.464;2023-06-14T00:27:47;20.60;61.50
42683;DHT22;28293;50.930;3.464;2023-06-14T00:30:13;20.60;61.40
42683;DHT22;28293;50.930;3.464;2023-06-14T00:32:39;20.50;61.80
42683;DHT22;28293;50.930;3.464;2023-06-14T00:35:05;20.50;62.00
42683;DHT22;28293;50.930;3.464;2023-06-14T00:37:31;20.50;62.10
42683;DHT22;28293;50.930;3.464;2023-06-14T00:39:56;20.40;62.30
42683;DHT22;28293;50.930;3.464;2023-06-14T00:42:26;20.30;62.60
42683;DHT22;28293;50.930;3.464;2023-06-14T00:44:52;20.20;63.20
42683;DHT22;28293;50.930;3.464;2023-06-14T00:47:18;20.10;63.70
42683;DHT22;28293;50.930;3.464;2023-06-14T00:49:52;20.10;63.80
42683;DHT22;28293;50.930;3.464;2023-06-14T00:52:18;20.10;63.60
42683;DHT22;28293;50.930;3.464;2023-06-14T00:54:44;20.10;63.50
42683;DHT22;28293;50.930;3.464;2023-06-14T00:57:11;20.10;63.40
42683;DHT22;28293;50.930;3.464;2023-06-14T00:59:57;20.20;63.40
42683;DHT22;28293;50.930;3.464;2023-06-14T01:02:23;20.10;63.50
42683;DHT22;28293;50.930;3.464;2023-06-14T01:04:52;20.10;63.40
42683;DHT22;28293;50.930;3.464;2023-06-14T01:15:24;20.10;64.00
42683;DHT22;28293;50.930;3.464;2023-06-14T01:17:50;20.00;64.00
42683;DHT22;28293;50.930;3.464;2023-06-14T01:20:21;19.90;64.30
42683;DHT22;28293;50.930;3.464;2023-06-14T01:22:53;19.90;64.60
42683;DHT22;28293;50.930;3.464;2023-06-14T01:25:22;19.90;64.40
42683;DHT22;28293;50.930;3.464;2023-06-14T01:27:51;19.80;64.60
42683;DHT22;28293;50.930;3.464;2023-06-14T01:30:17;19.70;65.20
42683;DHT22;28293;50.930;3.464;2023-06-14T01:32:44;19.50;66.10
42683;DHT22;28293;50.930;3.464;2023-06-14T01:35:10;19.40;66.50
42683;DHT22;28293;50.930;3.464;2023-06-14T01:37:36;19.40;66.90
42683;DHT22;28293;50.930;3.464;2023-06-14T01:40:04;19.30;67.10
42683;DHT22;28293;50.930;3.464;2023-06-14T01:42:36;19.30;67.10
42683;DHT22;28293;50.930;3.464;2023-06-14T01:45:04;19.30;67.30
42683;DHT22;28293;50.930;3.464;2023-06-14T01:47:31;19.30;67.30
42683;DHT22;28293;50.930;3.464;2023-06-14T01:50:01;19.30;67.20
42683;DHT22;28293;50.930;3.464;2023-06-14T01:52:27;19.30;67.10
42683;DHT22;28293;50.930;3.464;2023-06-14T01:54:52;19.40;66.90
42683;DHT22;28293;50.930;3.464;2023-06-14T01:57:18;19.40;66.80
42683;DHT22;28293;50.930;3.464;2023-06-14T01:59:45;19.40;66.70
42683;DHT22;28293;50.930;3.464;2023-06-14T02:02:14;19.30;66.40
42683;DHT22;28293;50.930;3.464;2023-06-14T02:04:39;19.40;66.70
42683;DHT22;28293;50.930;3.464;2023-06-14T02:07:05;19.20;66.90
42683;DHT22;28293;50.930;3.464;2023-06-14T02:09:31;19.10;67.50
42683;DHT22;28293;50.930;3.464;2023-06-14T02:11:57;19.10;67.70
42683;DHT22;28293;50.930;3.464;2023-06-14T02:14:22;19.00;67.90
42683;DHT22;28293;50.930;3.464;2023-06-14T02:16:48;19.00;67.90
42683;DHT22;28293;50.930;3.464;2023-06-14T02:19:18;19.00;67.90
42683;DHT22;28293;50.930;3.464;2023-06-14T02:21:45;19.00;67.80
42683;DHT22;28293;50.930;3.464;2023-06-14T02:24:10;19.10;67.50
42683;DHT22;28293;50.930;3.464;2023-06-14T02:26:36;19.00;67.70
42683;DHT22;28293;50.930;3.464;2023-06-14T02:29:08;19.00;67.80
42683;DHT22;28293;50.930;3.464;2023-06-14T02:31:36;19.00;67.90
42683;DHT22;28293;50.930;3.464;2023-06-14T02:34:02;18.90;68.10
42683;DHT22;28293;50.930;3.464;2023-06-14T02:36:27;18.90;68.10
42683;DHT22;28293;50.930;3.464;2023-06-14T02:38:56;18.90;67.90
42683;DHT22;28293;50.930;3.464;2023-06-14T02:41:23;18.90;68.00
42683;DHT22;28293;50.930;3.464;2023-06-14T02:43:49;18.90;68.20
42683;DHT22;28293;50.930;3.464;2023-06-14T02:46:15;18.90;68.30
42683;DHT22;28293;50.930;3.464;2023-06-14T02:48:41;18.90;68.20
42683;DHT22;28293;50.930;3.464;2023-06-14T02:51:06;19.00;68.20
42683;DHT22;28293;50.930;3.464;2023-06-14T02:53:34;18.90;68.10
42683;DHT22;28293;50.930;3.464;2023-06-14T02:56:00;18.90;68.10
42683;DHT22;28293;50.930;3.464;2023-06-14T02:58:26;18.80;68.50
42683;DHT22;28293;50.930;3.464;2023-06-14T03:00:52;18.80;68.60
42683;DHT22;28293;50.930;3.464;2023-06-14T03:03:18;18.80;68.50
42683;DHT22;28293;50.930;3.464;2023-06-14T03:05:46;18.70;68.40
42683;DHT22;28293;50.930;3.464;2023-06-14T03:08:13;18.70;68.40
42683;DHT22;28293;50.930;3.464;2023-06-14T03:10:47;18.60;68.30
42683;DHT22;28293;50.930;3.464;2023-06-14T03:13:14;18.60;68.80
42683;DHT22;28293;50.930;3.464;2023-06-14T03:15:41;18.50;68.90
42683;DHT22;28293;50.930;3.464;2023-06-14T03:18:10;18.50;68.80
42683;DHT22;28293;50.930;3.464;2023-06-14T03:20:37;18.40;69.00
42683;DHT22;28293;50.930;3.464;2023-06-14T03:23:03;18.40;69.20
42683;DHT22;28293;50.930;3.464;2023-06-14T03:25:30;18.30;69.20
42683;DHT22;28293;50.930;3.464;2023-06-14T03:27:57;18.30;69.40
42683;DHT22;28293;50.930;3.464;2023-06-14T03:30:22;18.20;69.40
42683;DHT22;28293;50.930;3.464;2023-06-14T03:32:48;18.10;69.60
42683;DHT22;28293;50.930;3.464;2023-06-14T03:35:14;18.20;69.50
42683;DHT22;28293;50.930;3.464;2023-06-14T03:37:46;18.10;69.00
42683;DHT22;28293;50.930;3.464;2023-06-14T03:40:14;18.10;68.80
42683;DHT22;28293;50.930;3.464;2023-06-14T03:42:40;18.10;68.70
42683;DHT22;28293;50.930;3.464;2023-06-14T03:45:06;18.10;68.40
42683;DHT22;28293;50.930;3.464;2023-06-14T03:47:33;18.10;68.30
42683;DHT22;28293;50.930;3.464;2023-06-14T03:49:59;18.10;68.10
42683;DHT22;28293;50.930;3.464;2023-06-14T03:52:25;18.10;68.10
42683;DHT22;28293;50.930;3.464;2023-06-14T03:54:51;18.10;68.00
42683;DHT22;28293;50.930;3.464;2023-06-14T03:57:17;18.10;67.90
42683;DHT22;28293;50.930;3.464;2023-06-14T03:59:43;18.10;67.90
42683;DHT22;28293;50.930;3.464;2023-06-14T04:02:09;18.10;67.60
42683;DHT22;28293;50.930;3.464;2023-06-14T04:04:35;18.10;67.60
42683;DHT22;28293;50.930;3.464;2023-06-14T04:07:01;18.10;67.40
42683;DHT22;28293;50.930;3.464;2023-06-14T04:09:29;18.10;67.20
42683;DHT22;28293;50.930;3.464;2023-06-14T04:11:55;18.10;67.00
42683;DHT22;28293;50.930;3.464;2023-06-14T04:14:21;18.10;66.70
42683;DHT22;28293;50.930;3.464;2023-06-14T04:16:48;18.20;66.70
42683;DHT22;28293;50.930;3.464;2023-06-14T04:19:14;18.30;66.50
42683;DHT22;28293;50.930;3.464;2023-06-14T04:21:40;18.30;66.10
42683;DHT22;28293;50.930;3.464;2023-06-14T04:24:06;18.40;65.80
42683;DHT22;28293;50.930;3.464;2023-06-14T04:26:32;18.50;65.40
42683;DHT22;28293;50.930;3.464;2023-06-14T04:29:02;18.60;64.30
42683;DHT22;28293;50.930;3.464;2023-06-14T04:31:30;18.60;63.80
42683;DHT22;28293;50.930;3.464;2023-06-14T04:33:59;18.60;63.10
42683;DHT22;28293;50.930;3.464;2023-06-14T04:36:24;18.60;63.00
42683;DHT22;28293;50.930;3.464;2023-06-14T04:38:52;18.70;62.80
42683;DHT22;28293;50.930;3.464;2023-06-14T04:41:21;18.80;62.00
42683;DHT22;28293;50.930;3.464;2023-06-14T04:43:50;18.80;61.80
42683;DHT22;28293;50.930;3.464;2023-06-14T04:46:19;18.80;61.50
42683;DHT22;28293;50.930;3.464;2023-06-14T04:48:44;18.80;61.30
42683;DHT22;28293;50.930;3.464;2023-06-14T04:51:11;18.90;61.20
42683;DHT22;28293;50.930;3.464;2023-06-14T04:53:38;19.00;61.00
42683;DHT22;28293;50.930;3.464;2023-06-14T04:56:04;19.00;60.20
42683;DHT22;28293;50.930;3.464;2023-06-14T04:58:30;19.10;60.30
42683;DHT22;28293;50.930;3.464;2023-06-14T05:00:56;19.20;59.80
42683;DHT22;28293;50.930;3.464;2023-06-14T05:03:24;19.20;59.60
42683;DHT22;28293;50.930;3.464;2023-06-14T05:05:50;19.30;59.90
42683;DHT22;28293;50.930;3.464;2023-06-14T05:08:16;19.70;59.60
42683;DHT22;28293;50.930;3.464;2023-06-14T05:10:42;20.90;55.70
42683;DHT22;28293;50.930;3.464;2023-06-14T05:13:07;22.40;52.00
42683;DHT22;28293;50.930;3.464;2023-06-14T05:15:33;23.60;48.70
42683;DHT22;28293;50.930;3.464;2023-06-14T05:17:59;24.10;47.80
42683;DHT22;28293;50.930;3.464;2023-06-14T05:20:25;24.70;45.50
42683;DHT22;28293;50.930;3.464;2023-06-14T05:22:52;25.30;44.10
42683;DHT22;28293;50.930;3.464;2023-06-14T05:25:22;25.80;43.00
42683;DHT22;28293;50.930;3.464;2023-06-14T05:27:48;26.20;42.30
42683;DHT22;28293;50.930;3.464;2023-06-14T05:30:15;26.30;42.40
42683;DHT22;28293;50.930;3.464;2023-06-14T05:32:41;26.90;41.50
42683;DHT22;28293;50.930;3.464;2023-06-14T05:35:06;27.70;39.70
42683;DHT22;28293;50.930;3.464;2023-06-14T05:37:32;27.20;39.70
42683;DHT22;28293;50.930;3.464;2023-06-14T05:39:58;27.30;40.30
42683;DHT22;28293;50.930;3.464;2023-06-14T05:42:24;27.10;40.70
42683;DHT22;28293;50.930;3.464;2023-06-14T05:44:49;27.30;40.00
42683;DHT22;28293;50.930;3.464;2023-06-14T05:47:15;27.40;39.50
42683;DHT22;28293;50.930;3.464;2023-06-14T05:49:41;27.40;39.00
42683;DHT22;28293;50.930;3.464;2023-06-14T05:52:08;26.70;39.80
42683;DHT22;28293;50.930;3.464;2023-06-14T05:54:33;26.40;41.20
42683;DHT22;28293;50.930;3.464;2023-06-14T05:56:59;25.60;41.80
42683;DHT22;28293;50.930;3.464;2023-06-14T05:59:27;24.70;43.90
42683;DHT22;28293;50.930;3.464;2023-06-14T06:01:52;24.10;45.60
42683;DHT22;28293;50.930;3.464;2023-06-14T06:04:18;23.40;45.90
42683;DHT22;28293;50.930;3.464;2023-06-14T06:06:45;23.10;46.90
42683;DHT22;28293;50.930;3.464;2023-06-14T06:09:10;23.10;46.40
42683;DHT22;28293;50.930;3.464;2023-06-14T06:11:36;23.00;45.50
42683;DHT22;28293;50.930;3.464;2023-06-14T06:14:02;22.70;47.00
42683;DHT22;28293;50.930;3.464;2023-06-14T06:16:27;22.90;46.40
42683;DHT22;28293;50.930;3.464;2023-06-14T06:18:53;23.00;46.00
42683;DHT22;28293;50.930;3.464;2023-06-14T06:21:19;22.80;45.90
42683;DHT22;28293;50.930;3.464;2023-06-14T06:23:44;22.90;46.00
42683;DHT22;28293;50.930;3.464;2023-06-14T06:26:10;22.80;46.00
42683;DHT22;28293;50.930;3.464;2023-06-14T06:28:36;22.90;45.20
42683;DHT22;28293;50.930;3.464;2023-06-14T06:31:01;23.00;45.40
42683;DHT22;28293;50.930;3.464;2023-06-14T06:33:27;23.10;45.30
42683;DHT22;28293;50.930;3.464;2023-06-14T06:35:52;23.30;44.80
42683;DHT22;28293;50.930;3.464;2023-06-14T06:38:18;23.50;44.80
42683;DHT22;28293;50.930;3.464;2023-06-14T06:40:44;23.40;43.90
42683;DHT22;28293;50.930;3.464;2023-06-14T06:43:10;23.30;44.20
42683;DHT22;28293;50.930;3.464;2023-06-14T06:45:39;23.20;44.60
42683;DHT22;28293;50.930;3.464;2023-06-14T06:48:05;23.20;44.10
42683;DHT22;28293;50.930;3.464;2023-06-14T06:50:31;23.10;44.70
42683;DHT22;28293;50.930;3.464;2023-06-14T06:52:57;23.00;44.60
42683;DHT22;28293;50.930;3.464;2023-06-14T06:55:22;23.20;44.90
42683;DHT22;28293;50.930;3.464;2023-06-14T06:57:48;23.20;45.00
42683;DHT22;28293;50.930;3.464;2023-06-14T07:00:15;23.20;44.80
42683;DHT22;28293;50.930;3.464;2023-06-14T07:02:43;23.30;44.70
42683;DHT22;28293;50.930;3.464;2023-06-14T07:05:08;23.30;44.20
42683;DHT22;28293;50.930;3.464;2023-06-14T07:07:34;23.60;44.30
42683;DHT22;28293;50.930;3.464;2023-06-14T07:10:00;24.10;43.50
42683;DHT22;28293;50.930;3.464;2023-06-14T07:12:30;24.30;43.80
42683;DHT22;28293;50.930;3.464;2023-06-14T07:14:57;24.50;42.30
42683;DHT22;28293;50.930;3.464;2023-06-14T07:17:23;24.50;42.10
42683;DHT22;28293;50.930;3.464;2023-06-14T07:19:48;24.50;42.80
42683;DHT22;28293;50.930;3.464;2023-06-14T07:22:14;24.70;41.70
42683;DHT22;28293;50.930;3.464;2023-06-14T07:24:41;24.80;41.00
42683;DHT22;28293;50.930;3.464;2023-06-14T07:27:07;25.00;41.60
42683;DHT22;28293;50.930;3.464;2023-06-14T07:29:33;25.30;41.00
42683;DHT22;28293;50.930;3.464;2023-06-14T07:31:59;25.40;41.00
42683;DHT22;28293;50.930;3.464;2023-06-14T07:34:25;25.60;40.60
42683;DHT22;28293;50.930;3.464;2023-06-14T07:36:51;25.60;39.30
42683;DHT22;28293;50.930;3.464;2023-06-14T07:39:17;25.50;39.30
42683;DHT22;28293;50.930;3.464;2023-06-14T07:41:43;25.60;39.80
42683;DHT22;28293;50.930;3.464;2023-06-14T07:44:08;25.50;39.70
42683;DHT22;28293;50.930;3.464;2023-06-14T07:46:34;25.80;39.20
42683;DHT22;28293;50.930;3.464;2023-06-14T07:49:00;25.90;39.30
42683;DHT22;28293;50.930;3.464;2023-06-14T07:51:26;25.80;39.70
42683;DHT22;28293;50.930;3.464;2023-06-14T07:53:51;25.90;39.80
42683;DHT22;28293;50.930;3.464;2023-06-14T07:56:17;25.80;39.20
42683;DHT22;28293;50.930;3.464;2023-06-14T07:58:43;26.10;39.20
42683;DHT22;28293;50.930;3.464;2023-06-14T08:01:09;26.20;38.90
42683;DHT22;28293;50.930;3.464;2023-06-14T08:03:35;26.40;38.10
42683;DHT22;28293;50.930;3.464;2023-06-14T08:06:01;26.50;38.40
42683;DHT22;28293;50.930;3.464;2023-06-14T08:08:27;26.60;37.70
42683;DHT22;28293;50.930;3.464;2023-06-14T08:10:53;26.70;37.00
42683;DHT22;28293;50.930;3.464;2023-06-14T08:13:18;26.30;38.00
42683;DHT22;28293;50.930;3.464;2023-06-14T08:15:44;26.60;38.20
42683;DHT22;28293;50.930;3.464;2023-06-14T08:18:10;26.50;38.50
42683;DHT22;28293;50.930;3.464;2023-06-14T08:20:36;26.80;37.80
42683;DHT22;28293;50.930;3.464;2023-06-14T08:23:03;26.90;36.70
42683;DHT22;28293;50.930;3.464;2023-06-14T08:25:29;26.80;36.90
42683;DHT22;28293;50.930;3.464;2023-06-14T08:27:55;26.80;37.10
42683;DHT22;28293;50.930;3.464;2023-06-14T08:30:21;27.00;36.00
42683;DHT22;28293;50.930;3.464;2023-06-14T08:32:47;26.60;36.30
42683;DHT22;28293;50.930;3.464;2023-06-14T08:35:13;26.90;35.80
42683;DHT22;28293;50.930;3.464;2023-06-14T08:37:42;27.30;35.00
42683;DHT22;28293;50.930;3.464;2023-06-14T08:40:19;27.00;34.50
42683;DHT22;28293;50.930;3.464;2023-06-14T08:42:51;27.50;34.20
42683;DHT22;28293;50.930;3.464;2023-06-14T08:45:19;27.50;33.50
42683;DHT22;28293;50.930;3.464;2023-06-14T08:47:45;27.90;33.10
42683;DHT22;28293;50.930;3.464;2023-06-14T08:50:11;28.20;33.30
42683;DHT22;28293;50.930;3.464;2023-06-14T08:52:38;28.30;32.60
42683;DHT22;28293;50.930;3.464;2023-06-14T08:55:07;28.50;32.80
42683;DHT22;28293;50.930;3.464;2023-06-14T08:57:36;28.70;33.10
42683;DHT22;28293;50.930;3.464;2023-06-14T09:00:03;29.00;33.00
42683;DHT22;28293;50.930;3.464;2023-06-14T09:02:38;28.90;32.70
42683;DHT22;28293;50.930;3.464;2023-06-14T09:05:04;28.60;32.70
42683;DHT22;28293;50.930;3.464;2023-06-14T09:07:29;28.70;31.60
42683;DHT22;28293;50.930;3.464;2023-06-14T09:10:15;28.30;31.20
42683;DHT22;28293;50.930;3.464;2023-06-14T09:12:41;28.30;31.90
42683;DHT22;28293;50.930;3.464;2023-06-14T09:15:08;28.00;31.50
42683;DHT22;28293;50.930;3.464;2023-06-14T09:17:38;28.00;31.30
42683;DHT22;28293;50.930;3.464;2023-06-14T09:20:05;27.90;32.10
42683;DHT22;28293;50.930;3.464;2023-06-14T09:22:44;28.20;31.30
42683;DHT22;28293;50.930;3.464;2023-06-14T09:25:10;28.20;31.50
42683;DHT22;28293;50.930;3.464;2023-06-14T09:27:38;28.50;30.60
42683;DHT22;28293;50.930;3.464;2023-06-14T09:30:06;28.70;30.20
42683;DHT22;28293;50.930;3.464;2023-06-14T09:32:37;29.20;29.70
42683;DHT22;28293;50.930;3.464;2023-06-14T09:35:04;29.40;30.10
42683;DHT22;28293;50.930;3.464;2023-06-14T09:37:31;29.70;30.00
42683;DHT22;28293;50.930;3.464;2023-06-14T09:39:57;29.30;29.20
42683;DHT22;28293;50.930;3.464;2023-06-14T09:42:23;29.00;29.90
42683;DHT22;28293;50.930;3.464;2023-06-14T09:44:56;28.60;29.20
42683;DHT22;28293;50.930;3.464;2023-06-14T09:47:22;28.80;28.70
42683;DHT22;28293;50.930;3.464;2023-06-14T09:49:49;28.80;29.40
42683;DHT22;28293;50.930;3.464;2023-06-14T09:52:17;29.10;29.40
42683;DHT22;28293;50.930;3.464;2023-06-14T09:54:44;29.40;29.10
42683;DHT22;28293;50.930;3.464;2023-06-14T09:57:15;28.90;29.10
42683;DHT22;28293;50.930;3.464;2023-06-14T09:59:43;28.90;29.60
42683;DHT22;28293;50.930;3.464;2023-06-14T10:04:46;29.60;29.00
42683;DHT22;28293;50.930;3.464;2023-06-14T10:07:19;30.00;29.20
42683;DHT22;28293;50.930;3.464;2023-06-14T10:09:46;29.90;28.10
42683;DHT22;28293;50.930;3.464;2023-06-14T10:12:16;30.10;28.10
42683;DHT22;28293;50.930;3.464;2023-06-14T10:14:49;30.30;27.90
42683;DHT22;28293;50.930;3.464;2023-06-14T10:17:44;30.50;28.00
42683;DHT22;28293;50.930;3.464;2023-06-14T10:22:58;30.20;27.60
42683;DHT22;28293;50.930;3.464;2023-06-14T10:25:31;30.00;27.70
42683;DHT22;28293;50.930;3.464;2023-06-14T10:28:17;29.70;27.90
42683;DHT22;28293;50.930;3.464;2023-06-14T10:33:36;29.30;28.10
42683;DHT22;28293;50.930;3.464;2023-06-14T10:36:25;29.30;27.80
42683;DHT22;28293;50.930;3.464;2023-06-14T10:39:07;29.40;27.90
42683;DHT22;28293;50.930;3.464;2023-06-14T10:41:36;29.40;27.90
42683;DHT22;28293;50.930;3.464;2023-06-14T10:46:49;29.50;28.20
42683;DHT22;28293;50.930;3.464;2023-06-14T10:49:18;29.50;28.20
42683;DHT22;28293;50.930;3.464;2023-06-14T10:51:54;29.70;28.10
42683;DHT22;28293;50.930;3.464;2023-06-14T10:54:22;29.80;28.50
42683;DHT22;28293;50.930;3.464;2023-06-14T10:56:50;29.20;28.60
42683;DHT22;28293;50.930;3.464;2023-06-14T10:59:16;29.60;28.40
42683;DHT22;28293;50.930;3.464;2023-06-14T11:04:49;30.00;27.00
42683;DHT22;28293;50.930;3.464;2023-06-14T11:13:16;29.80;28.60
42683;DHT22;28293;50.930;3.464;2023-06-14T11:15:47;30.10;28.00
42683;DHT22;28293;50.930;3.464;2023-06-14T11:18:13;30.20;27.50
42683;DHT22;28293;50.930;3.464;2023-06-14T11:20:40;30.20;27.70
42683;DHT22;28293;50.930;3.464;2023-06-14T11:23:06;30.10;27.60
42683;DHT22;28293;50.930;3.464;2023-06-14T11:25:32;30.50;27.00
42683;DHT22;28293;50.930;3.464;2023-06-14T11:27:58;30.40;27.00
42683;DHT22;28293;50.930;3.464;2023-06-14T11:30:25;30.60;27.70
42683;DHT22;28293;50.930;3.464;2023-06-14T11:32:52;31.10;26.10
42683;DHT22;28293;50.930;3.464;2023-06-14T11:35:19;31.50;26.00
42683;DHT22;28293;50.930;3.464;2023-06-14T11:37:48;31.20;25.50
42683;DHT22;28293;50.930;3.464;2023-06-14T11:40:15;31.20;26.20
42683;DHT22;28293;50.930;3.464;2023-06-14T11:42:41;31.40;26.10
42683;DHT22;28293;50.930;3.464;2023-06-14T11:45:11;31.00;26.50
42683;DHT22;28293;50.930;3.464;2023-06-14T11:47:39;30.50;26.50
42683;DHT22;28293;50.930;3.464;2023-06-14T11:50:06;29.90;28.10
42683;DHT22;28293;50.930;3.464;2023-06-14T11:52:32;29.40;28.60
42683;DHT22;28293;50.930;3.464;2023-06-14T11:54:58;30.00;28.70
42683;DHT22;28293;50.930;3.464;2023-06-14T11:57:25;30.00;28.50
42683;DHT22;28293;50.930;3.464;2023-06-14T11:59:51;30.00;28.50
42683;DHT22;28293;50.930;3.464;2023-06-14T12:02:18;30.10;28.90
42683;DHT22;28293;50.930;3.464;2023-06-14T12:04:46;30.60;28.30
42683;DHT22;28293;50.930;3.464;2023-06-14T12:07:13;31.10;26.60
42683;DHT22;28293;50.930;3.464;2023-06-14T12:12:26;31.00;27.50
42683;DHT22;28293;50.930;3.464;2023-06-14T12:14:55;30.70;27.60
42683;DHT22;28293;50.930;3.464;2023-06-14T12:17:22;30.90;27.70
42683;DHT22;28293;50.930;3.464;2023-06-14T12:19:49;31.00;27.60
42683;DHT22;28293;50.930;3.464;2023-06-14T12:22:16;31.30;27.40
42683;DHT22;28293;50.930;3.464;2023-06-14T12:24:45;31.50;26.90
42683;DHT22;28293;50.930;3.464;2023-06-14T12:27:12;31.20;27.10
42683;DHT22;28293;50.930;3.464;2023-06-14T12:29:43;30.50;28.10
42683;DHT22;28293;50.930;3.464;2023-06-14T12:32:09;30.10;28.20
42683;DHT22;28293;50.930;3.464;2023-06-14T12:34:35;30.10;28.00
42683;DHT22;28293;50.930;3.464;2023-06-14T12:37:01;29.50;28.50
42683;DHT22;28293;50.930;3.464;2023-06-14T12:39:28;29.80;28.40
42683;DHT22;28293;50.930;3.464;2023-06-14T12:41:55;29.80;28.20
42683;DHT22;28293;50.930;3.464;2023-06-14T12:44:21;29.80;27.80
42683;DHT22;28293;50.930;3.464;2023-06-14T12:46:46;29.90;27.80
42683;DHT22;28293;50.930;3.464;2023-06-14T12:49:12;29.80;28.40
42683;DHT22;28293;50.930;3.464;2023-06-14T12:51:39;30.10;28.00
42683;DHT22;28293;50.930;3.464;2023-06-14T12:54:05;29.60;28.00
42683;DHT22;28293;50.930;3.464;2023-06-14T12:56:31;29.80;27.80
42683;DHT22;28293;50.930;3.464;2023-06-14T12:58:57;30.10;27.90
42683;DHT22;28293;50.930;3.464;2023-06-14T13:01:23;30.30;28.00
42683;DHT22;28293;50.930;3.464;2023-06-14T13:03:49;30.10;27.10
42683;DHT22;28293;50.930;3.464;2023-06-14T13:06:17;30.00;27.60
42683;DHT22;28293;50.930;3.464;2023-06-14T13:08:43;29.90;27.60
42683;DHT22;28293;50.930;3.464;2023-06-14T13:11:08;30.10;27.00
42683;DHT22;28293;50.930;3.464;2023-06-14T13:13:34;30.20;27.30
42683;DHT22;28293;50.930;3.464;2023-06-14T13:16:00;30.30;26.40
42683;DHT22;28293;50.930;3.464;2023-06-14T13:18:26;30.40;27.60
42683;DHT22;28293;50.930;3.464;2023-06-14T13:20:52;30.50;26.70
42683;DHT22;28293;50.930;3.464;2023-06-14T13:23:17;30.20;26.90
42683;DHT22;28293;50.930;3.464;2023-06-14T13:25:43;30.40;27.50
42683;DHT22;28293;50.930;3.464;2023-06-14T13:28:09;30.50;27.20
42683;DHT22;28293;50.930;3.464;2023-06-14T13:30:35;30.70;26.60
42683;DHT22;28293;50.930;3.464;2023-06-14T13:33:01;30.70;25.60
42683;DHT22;28293;50.930;3.464;2023-06-14T13:35:27;30.10;27.10
42683;DHT22;28293;50.930;3.464;2023-06-14T13:37:53;30.10;26.80
42683;DHT22;28293;50.930;3.464;2023-06-14T13:40:18;30.40;27.00
42683;DHT22;28293;50.930;3.464;2023-06-14T13:42:45;30.60;27.70
42683;DHT22;28293;50.930;3.464;2023-06-14T13:45:12;31.00;26.10
42683;DHT22;28293;50.930;3.464;2023-06-14T13:47:38;30.30;26.60
42683;DHT22;28293;50.930;3.464;2023-06-14T13:50:04;30.30;27.60
42683;DHT22;28293;50.930;3.464;2023-06-14T13:52:31;30.30;27.40
42683;DHT22;28293;50.930;3.464;2023-06-14T13:54:56;30.40;27.50
42683;DHT22;28293;50.930;3.464;2023-06-14T13:57:22;30.10;27.70
42683;DHT22;28293;50.930;3.464;2023-06-14T13:59:48;30.10;28.20
42683;DHT22;28293;50.930;3.464;2023-06-14T14:02:13;30.30;27.90
42683;DHT22;28293;50.930;3.464;2023-06-14T14:04:40;30.80;27.60
42683;DHT22;28293;50.930;3.464;2023-06-14T14:07:06;31.00;27.20
42683;DHT22;28293;50.930;3.464;2023-06-14T14:09:33;30.80;27.40
42683;DHT22;28293;50.930;3.464;2023-06-14T14:12:03;31.10;27.10
42683;DHT22;28293;50.930;3.464;2023-06-14T14:14:30;31.00;25.60
42683;DHT22;28293;50.930;3.464;2023-06-14T14:16:57;31.10;26.30
42683;DHT22;28293;50.930;3.464;2023-06-14T14:19:23;30.90;27.00
42683;DHT22;28293;50.930;3.464;2023-06-14T14:21:49;30.80;26.60
42683;DHT22;28293;50.930;3.464;2023-06-14T14:24:15;30.50;26.80
42683;DHT22;28293;50.930;3.464;2023-06-14T14:26:41;30.40;27.50
42683;DHT22;28293;50.930;3.464;2023-06-14T14:29:07;30.70;27.70
42683;DHT22;28293;50.930;3.464;2023-06-14T14:31:33;30.00;27.40
42683;DHT22;28293;50.930;3.464;2023-06-14T14:33:58;30.00;28.50
42683;DHT22;28293;50.930;3.464;2023-06-14T14:36:24;30.00;27.80
42683;DHT22;28293;50.930;3.464;2023-06-14T14:38:50;30.00;27.50
42683;DHT22;28293;50.930;3.464;2023-06-14T14:41:17;30.10;26.90
42683;DHT22;28293;50.930;3.464;2023-06-14T14:43:43;30.30;27.60
42683;DHT22;28293;50.930;3.464;2023-06-14T14:46:08;30.40;27.70
42683;DHT22;28293;50.930;3.464;2023-06-14T14:48:34;30.60;27.60
42683;DHT22;28293;50.930;3.464;2023-06-14T14:51:00;30.90;26.70
42683;DHT22;28293;50.930;3.464;2023-06-14T14:53:25;30.50;27.30
42683;DHT22;28293;50.930;3.464;2023-06-14T14:55:51;30.70;26.60
42683;DHT22;28293;50.930;3.464;2023-06-14T14:58:17;30.30;27.80
42683;DHT22;28293;50.930;3.464;2023-06-14T15:00:46;29.50;28.10
42683;DHT22;28293;50.930;3.464;2023-06-14T15:03:13;29.30;28.80
42683;DHT22;28293;50.930;3.464;2023-06-14T15:05:39;29.20;28.70
42683;DHT22;28293;50.930;3.464;2023-06-14T15:08:05;29.20;28.70
42683;DHT22;28293;50.930;3.464;2023-06-14T15:10:38;28.90;28.80
42683;DHT22;28293;50.930;3.464;2023-06-14T15:13:06;29.10;28.90
42683;DHT22;28293;50.930;3.464;2023-06-14T15:15:33;29.00;29.00
42683;DHT22;28293;50.930;3.464;2023-06-14T15:17:59;29.30;29.00
42683;DHT22;28293;50.930;3.464;2023-06-14T15:20:26;29.60;28.60
42683;DHT22;28293;50.930;3.464;2023-06-14T15:22:52;30.00;27.80
42683;DHT22;28293;50.930;3.464;2023-06-14T15:25:18;30.20;27.80
42683;DHT22;28293;50.930;3.464;2023-06-14T15:27:44;30.40;28.70
42683;DHT22;28293;50.930;3.464;2023-06-14T15:30:10;30.00;29.40
42683;DHT22;28293;50.930;3.464;2023-06-14T15:32:36;29.40;29.20
42683;DHT22;28293;50.930;3.464;2023-06-14T15:35:02;28.90;30.30
42683;DHT22;28293;50.930;3.464;2023-06-14T15:37:27;29.00;29.90
42683;DHT22;28293;50.930;3.464;2023-06-14T15:39:53;29.20;30.00
42683;DHT22;28293;50.930;3.464;2023-06-14T15:42:19;29.10;29.80
42683;DHT22;28293;50.930;3.464;2023-06-14T15:44:44;29.10;29.80
42683;DHT22;28293;50.930;3.464;2023-06-14T15:47:12;28.70;30.10
42683;DHT22;28293;50.930;3.464;2023-06-14T15:49:37;29.00;29.90
42683;DHT22;28293;50.930;3.464;2023-06-14T15:52:03;29.00;29.70
42683;DHT22;28293;50.930;3.464;2023-06-14T15:54:29;29.00;29.20
42683;DHT22;28293;50.930;3.464;2023-06-14T15:56:55;29.00;29.20
42683;DHT22;28293;50.930;3.464;2023-06-14T15:59:20;29.00;29.20